createdAt,value
2016-09-30T00:00:23.391Z,15.28
2016-09-30T00:01:23.411Z,15.33
2016-09-30T00:02:23.402Z,15.3
2016-09-30T00:03:23.409Z,15.26
2016-09-30T00:04:23.391Z,15.19
2016-09-30T00:05:23.421Z,15.23
2016-09-30T00:06:23.444Z,15.28
2016-09-30T00:07:23.451Z,15.3
2016-09-30T00:08:23.433Z,15.28
2016-09-30T00:09:23.462Z,15.3
2016-09-30T00:10:23.416Z,15.26
2016-09-30T00:11:23.435Z,15.23
2016-09-30T00:12:23.451Z,15.26
2016-09-30T00:13:23.403Z,15.24
2016-09-30T00:14:23.453Z,15.19
2016-09-30T00:15:23.460Z,15.28
2016-09-30T00:16:23.432Z,15.3
2016-09-30T00:17:23.420Z,15.2
2016-09-30T00:18:23.416Z,15.2
2016-09-30T00:19:23.445Z,15.2
2016-09-30T00:20:23.439Z,15.19
2016-09-30T00:21:23.473Z,15.13
2016-09-30T00:22:23.455Z,15.09
2016-09-30T00:23:23.431Z,15.11
2016-09-30T00:24:23.469Z,15.09
2016-09-30T00:25:23.428Z,15.08
2016-09-30T00:26:23.454Z,15.08
2016-09-30T00:27:23.432Z,15.15
2016-09-30T00:28:23.473Z,15.11
2016-09-30T00:29:23.423Z,15.11
2016-09-30T00:30:23.480Z,15.19
2016-09-30T00:31:23.471Z,14.98
2016-09-30T00:32:23.471Z,15.13
2016-09-30T00:33:23.437Z,14.98
2016-09-30T00:34:23.467Z,15.06
2016-09-30T00:35:23.445Z,15.08
2016-09-30T00:36:23.457Z,14.99
2016-09-30T00:37:23.432Z,15.01
2016-09-30T00:38:23.469Z,15.05
2016-09-30T00:39:23.478Z,15.03
2016-09-30T00:40:23.471Z,15.05
2016-09-30T00:41:23.457Z,14.98
2016-09-30T00:42:23.424Z,15.01
2016-09-30T00:43:23.474Z,15.09
2016-09-30T00:44:23.463Z,15.02
2016-09-30T00:45:23.460Z,15.06
2016-09-30T00:46:23.450Z,14.95
2016-09-30T00:47:23.485Z,14.98
2016-09-30T00:48:23.463Z,14.98
2016-09-30T00:49:23.506Z,15.01
2016-09-30T00:50:23.443Z,14.88
2016-09-30T00:51:23.490Z,14.93
2016-09-30T00:52:23.500Z,14.93
2016-09-30T00:53:23.466Z,15.01
2016-09-30T00:54:23.474Z,14.98
2016-09-30T00:55:23.470Z,14.87
2016-09-30T00:56:23.477Z,14.91
2016-09-30T00:57:23.470Z,14.95
2016-09-30T00:58:23.432Z,15.01
2016-09-30T00:59:23.479Z,14.99
2016-09-30T01:00:23.450Z,14.95
2016-09-30T01:01:23.496Z,15.01
2016-09-30T01:02:23.452Z,15.02
2016-09-30T01:03:23.447Z,15.06
2016-09-30T01:04:23.477Z,15.01
2016-09-30T01:05:23.456Z,15.01
2016-09-30T01:06:23.459Z,15.01
2016-09-30T01:07:23.475Z,15.06
2016-09-30T01:08:23.467Z,15.09
2016-09-30T01:09:23.444Z,15.11
2016-09-30T01:10:23.481Z,15.12
2016-09-30T01:11:23.491Z,15.21
2016-09-30T01:12:23.482Z,15.13
2016-09-30T01:13:23.466Z,15.13
2016-09-30T01:14:23.505Z,15.17
2016-09-30T01:15:23.470Z,15.2
2016-09-30T01:16:23.498Z,15.15
2016-09-30T01:17:23.470Z,15.28
2016-09-30T01:18:23.483Z,15.23
2016-09-30T01:19:23.469Z,15.19
2016-09-30T01:20:23.485Z,15.23
2016-09-30T01:21:23.491Z,15.24
2016-09-30T01:22:23.489Z,15.15
2016-09-30T01:23:23.481Z,15.21
2016-09-30T01:24:23.475Z,15.3
2016-09-30T01:25:23.481Z,15.15
2016-09-30T01:26:23.532Z,15.15
2016-09-30T01:27:23.494Z,15.11
2016-09-30T01:28:23.487Z,15.2
2016-09-30T01:29:23.491Z,15.09
2016-09-30T01:30:23.453Z,15.17
2016-09-30T01:31:23.535Z,15.21
2016-09-30T01:32:23.467Z,15.12
2016-09-30T01:33:23.494Z,15.08
2016-09-30T01:34:23.487Z,15.19
2016-09-30T01:35:23.461Z,15.11
2016-09-30T01:36:23.524Z,15.12
2016-09-30T01:37:23.476Z,15.06
2016-09-30T01:38:23.466Z,15.01
2016-09-30T01:39:23.529Z,14.99
2016-09-30T01:40:23.519Z,15.01
2016-09-30T01:41:23.503Z,14.86
2016-09-30T01:42:23.550Z,14.91
2016-09-30T01:43:23.494Z,14.93
2016-09-30T01:44:23.555Z,14.95
2016-09-30T01:45:23.514Z,14.91
2016-09-30T01:46:23.531Z,14.93
2016-09-30T01:47:23.511Z,14.91
2016-09-30T01:48:23.539Z,14.84
2016-09-30T01:49:23.538Z,14.84
2016-09-30T01:50:23.554Z,14.88
2016-09-30T01:51:23.525Z,14.88
2016-09-30T01:52:23.538Z,14.75
2016-09-30T01:53:23.505Z,14.8
2016-09-30T01:54:23.532Z,14.88
2016-09-30T01:55:23.517Z,14.75
2016-09-30T01:56:23.539Z,14.71
2016-09-30T01:57:23.517Z,14.81
2016-09-30T01:58:23.518Z,14.69
2016-09-30T01:59:23.539Z,14.81
2016-09-30T02:00:23.515Z,14.71
2016-09-30T02:01:23.541Z,14.67
2016-09-30T02:02:23.520Z,14.69
2016-09-30T02:03:23.558Z,14.83
2016-09-30T02:04:23.537Z,14.65
2016-09-30T02:05:23.519Z,14.67
2016-09-30T02:06:23.555Z,14.57
2016-09-30T02:07:23.504Z,14.69
2016-09-30T02:08:23.542Z,14.71
2016-09-30T02:09:23.530Z,14.74
2016-09-30T02:10:23.552Z,14.68
2016-09-30T02:11:23.559Z,14.67
2016-09-30T02:12:23.536Z,14.69
2016-09-30T02:13:23.515Z,14.68
2016-09-30T02:14:23.533Z,14.71
2016-09-30T02:15:23.527Z,14.62
2016-09-30T02:16:23.564Z,14.64
2016-09-30T02:17:23.526Z,14.75
2016-09-30T02:18:23.545Z,14.68
2016-09-30T02:19:23.498Z,14.69
2016-09-30T02:20:23.549Z,14.65
2016-09-30T02:21:23.567Z,14.71
2016-09-30T02:22:23.529Z,14.69
2016-09-30T02:23:23.534Z,14.62
2016-09-30T02:24:23.530Z,14.68
2016-09-30T02:25:23.548Z,14.6
2016-09-30T02:26:23.546Z,14.6
2016-09-30T02:27:23.522Z,14.64
2016-09-30T02:28:23.529Z,14.64
2016-09-30T02:29:23.534Z,14.65
2016-09-30T02:30:23.527Z,14.74
2016-09-30T02:31:23.593Z,14.64
2016-09-30T02:32:23.549Z,14.71
2016-09-30T02:33:23.514Z,14.54
2016-09-30T02:34:23.537Z,14.71
2016-09-30T02:35:23.556Z,14.62
2016-09-30T02:36:23.562Z,14.67
2016-09-30T02:37:23.556Z,14.62
2016-09-30T02:38:23.548Z,14.67
2016-09-30T02:39:23.553Z,14.67
2016-09-30T02:40:23.520Z,14.65
2016-09-30T02:41:23.564Z,14.61
2016-09-30T02:42:23.546Z,14.62
2016-09-30T02:43:23.533Z,14.61
2016-09-30T02:44:23.544Z,14.64
2016-09-30T02:45:23.539Z,14.62
2016-09-30T02:46:23.574Z,14.62
2016-09-30T02:47:23.560Z,14.65
2016-09-30T02:48:23.555Z,14.68
2016-09-30T02:49:23.524Z,14.57
2016-09-30T02:50:23.579Z,14.57
2016-09-30T02:51:23.563Z,14.53
2016-09-30T02:52:23.588Z,14.67
2016-09-30T02:53:23.587Z,14.56
2016-09-30T02:54:23.546Z,14.61
2016-09-30T02:55:23.555Z,14.52
2016-09-30T02:56:23.575Z,14.61
2016-09-30T02:57:23.553Z,14.56
2016-09-30T02:58:23.591Z,14.57
2016-09-30T02:59:23.550Z,14.57
2016-09-30T03:00:23.543Z,14.52
2016-09-30T03:01:23.565Z,14.54
2016-09-30T03:02:23.593Z,14.54
2016-09-30T03:03:23.549Z,14.52
2016-09-30T03:04:23.568Z,14.56
2016-09-30T03:05:23.577Z,14.61
2016-09-30T03:06:23.613Z,14.54
2016-09-30T03:07:23.622Z,14.52
2016-09-30T03:08:23.610Z,14.6
2016-09-30T03:09:23.585Z,14.54
2016-09-30T03:10:23.577Z,14.49
2016-09-30T03:11:23.577Z,14.52
2016-09-30T03:12:23.606Z,14.47
2016-09-30T03:13:23.580Z,14.5
2016-09-30T03:14:23.581Z,14.52
2016-09-30T03:15:23.590Z,14.53
2016-09-30T03:16:23.594Z,14.54
2016-09-30T03:17:23.601Z,14.52
2016-09-30T03:18:23.601Z,14.47
2016-09-30T03:19:23.584Z,14.64
2016-09-30T03:20:23.612Z,14.42
2016-09-30T03:21:23.606Z,14.49
2016-09-30T03:22:23.629Z,14.5
2016-09-30T03:23:23.594Z,14.53
2016-09-30T03:24:23.588Z,14.47
2016-09-30T03:25:23.592Z,14.49
2016-09-30T03:26:23.613Z,14.57
2016-09-30T03:27:23.642Z,14.56
2016-09-30T03:28:23.569Z,14.54
2016-09-30T03:29:23.587Z,14.49
2016-09-30T03:30:23.588Z,14.44
2016-09-30T03:31:23.600Z,14.53
2016-09-30T03:32:23.623Z,14.47
2016-09-30T03:33:23.593Z,14.46
2016-09-30T03:34:23.573Z,14.53
2016-09-30T03:35:23.601Z,14.47
2016-09-30T03:36:23.590Z,14.54
2016-09-30T03:37:23.600Z,14.49
2016-09-30T03:38:23.574Z,14.46
2016-09-30T03:39:23.593Z,14.43
2016-09-30T03:40:23.594Z,14.47
2016-09-30T03:41:23.607Z,14.46
2016-09-30T03:42:23.609Z,14.52
2016-09-30T03:43:23.619Z,14.43
2016-09-30T03:44:23.625Z,14.49
2016-09-30T03:45:23.629Z,14.44
2016-09-30T03:46:23.610Z,14.49
2016-09-30T03:47:23.603Z,14.43
2016-09-30T03:48:23.628Z,14.44
2016-09-30T03:49:23.625Z,14.56
2016-09-30T03:50:23.576Z,14.43
2016-09-30T03:51:23.628Z,14.39
2016-09-30T03:52:23.628Z,14.39
2016-09-30T03:53:23.605Z,14.39
2016-09-30T03:54:23.631Z,14.39
2016-09-30T03:55:23.605Z,14.43
2016-09-30T03:56:23.612Z,14.47
2016-09-30T03:57:23.621Z,14.5
2016-09-30T03:58:23.594Z,14.43
2016-09-30T03:59:23.603Z,14.39
2016-09-30T04:00:23.628Z,14.37
2016-09-30T04:01:23.613Z,14.34
2016-09-30T04:02:23.639Z,14.32
2016-09-30T04:03:23.647Z,14.46
2016-09-30T04:04:23.618Z,14.35
2016-09-30T04:05:23.623Z,14.29
2016-09-30T04:06:23.634Z,14.37
2016-09-30T04:07:23.657Z,14.37
2016-09-30T04:08:23.629Z,14.34
2016-09-30T04:09:23.605Z,14.31
2016-09-30T04:10:23.625Z,14.28
2016-09-30T04:11:23.615Z,14.29
2016-09-30T04:12:23.656Z,14.31
2016-09-30T04:13:23.605Z,14.29
2016-09-30T04:14:23.617Z,14.42
2016-09-30T04:15:23.600Z,14.24
2016-09-30T04:16:23.620Z,14.31
2016-09-30T04:17:23.641Z,14.31
2016-09-30T04:18:23.605Z,14.2
2016-09-30T04:19:23.626Z,14.29
2016-09-30T04:20:23.631Z,14.25
2016-09-30T04:21:23.624Z,14.28
2016-09-30T04:22:23.638Z,14.27
2016-09-30T04:23:23.634Z,14.31
2016-09-30T04:24:23.629Z,14.27
2016-09-30T04:25:23.639Z,14.27
2016-09-30T04:26:23.627Z,14.31
2016-09-30T04:27:23.649Z,14.2
2016-09-30T04:28:23.647Z,14.28
2016-09-30T04:29:23.622Z,14.2
2016-09-30T04:30:23.626Z,14.21
2016-09-30T04:31:23.630Z,14.19
2016-09-30T04:32:23.660Z,14.21
2016-09-30T04:33:23.630Z,14.25
2016-09-30T04:34:23.635Z,14.2
2016-09-30T04:35:23.648Z,14.19
2016-09-30T04:36:23.636Z,14.19
2016-09-30T04:37:23.644Z,14.14
2016-09-30T04:38:23.633Z,14.25
2016-09-30T04:39:23.647Z,14.2
2016-09-30T04:40:23.649Z,14.16
2016-09-30T04:41:23.651Z,14.25
2016-09-30T04:42:23.665Z,14.12
2016-09-30T04:43:23.681Z,14.24
2016-09-30T04:44:23.655Z,14.17
2016-09-30T04:45:23.677Z,14.19
2016-09-30T04:46:23.658Z,14.13
2016-09-30T04:47:23.671Z,14.24
2016-09-30T04:48:23.645Z,14.17
2016-09-30T04:49:23.647Z,14.14
2016-09-30T04:50:23.644Z,14.07
2016-09-30T04:51:23.664Z,14.07
2016-09-30T04:52:23.690Z,14.04
2016-09-30T04:53:23.664Z,14.07
2016-09-30T04:54:23.651Z,14.06
2016-09-30T04:55:23.650Z,14.09
2016-09-30T04:56:23.663Z,14.13
2016-09-30T04:57:23.663Z,14.09
2016-09-30T04:58:23.671Z,14.09
2016-09-30T04:59:23.647Z,14.1
2016-09-30T05:00:23.668Z,14.13
2016-09-30T05:01:23.658Z,14.17
2016-09-30T05:02:23.655Z,14.2
2016-09-30T05:03:23.675Z,14.21
2016-09-30T05:04:23.648Z,14.2
2016-09-30T05:05:23.689Z,14.2
2016-09-30T05:06:23.667Z,14.38
2016-09-30T05:07:23.689Z,14.27
2016-09-30T05:08:23.651Z,14.34
2016-09-30T05:09:23.670Z,14.34
2016-09-30T05:10:23.686Z,14.43
2016-09-30T05:11:23.696Z,14.42
2016-09-30T05:12:23.674Z,14.43
2016-09-30T05:13:23.683Z,14.44
2016-09-30T05:14:23.665Z,14.47
2016-09-30T05:15:23.665Z,14.53
2016-09-30T05:16:23.676Z,14.56
2016-09-30T05:17:23.683Z,14.6
2016-09-30T05:18:23.673Z,14.57
2016-09-30T05:19:23.697Z,14.65
2016-09-30T05:20:23.691Z,14.64
2016-09-30T05:21:23.680Z,14.62
2016-09-30T05:22:23.700Z,14.53
2016-09-30T05:23:23.690Z,14.68
2016-09-30T05:24:23.706Z,14.78
2016-09-30T05:25:23.681Z,14.84
2016-09-30T05:26:23.692Z,14.8
2016-09-30T05:27:23.706Z,14.8
2016-09-30T05:28:23.737Z,14.72
2016-09-30T05:29:23.688Z,14.83
2016-09-30T05:30:23.696Z,14.75
2016-09-30T05:31:23.674Z,14.83
2016-09-30T05:32:23.692Z,14.86
2016-09-30T05:33:23.716Z,14.83
2016-09-30T05:34:23.724Z,14.94
2016-09-30T05:35:23.664Z,14.87
2016-09-30T05:36:23.693Z,14.94
2016-09-30T05:37:23.698Z,14.94
2016-09-30T05:38:23.720Z,14.99
2016-09-30T05:39:23.680Z,14.94
2016-09-30T05:40:23.715Z,15.03
2016-09-30T05:41:23.695Z,15.08
2016-09-30T05:42:23.727Z,14.98
2016-09-30T05:43:23.749Z,14.99
2016-09-30T05:44:23.684Z,15.02
2016-09-30T05:45:23.687Z,15.08
2016-09-30T05:46:23.712Z,15.09
2016-09-30T05:47:23.703Z,15.11
2016-09-30T05:48:23.736Z,15.03
2016-09-30T05:49:23.725Z,15.11
2016-09-30T05:50:23.724Z,15.08
2016-09-30T05:51:23.715Z,15.12
2016-09-30T05:52:23.704Z,15.19
2016-09-30T05:53:23.722Z,15.17
2016-09-30T05:54:23.713Z,15.17
2016-09-30T05:55:23.762Z,15.13
2016-09-30T05:56:23.719Z,15.15
2016-09-30T05:57:23.722Z,15.26
2016-09-30T05:58:23.757Z,15.21
2016-09-30T05:59:23.749Z,15.13
2016-09-30T06:00:23.709Z,15.27
2016-09-30T06:01:23.717Z,15.2
2016-09-30T06:02:23.716Z,15.21
2016-09-30T06:03:23.744Z,15.23
2016-09-30T06:04:23.728Z,15.3
2016-09-30T06:05:23.744Z,15.26
2016-09-30T06:06:23.791Z,15.28
2016-09-30T06:07:23.735Z,15.28
2016-09-30T06:08:23.748Z,15.28
2016-09-30T06:09:23.740Z,15.35
2016-09-30T06:10:23.749Z,15.33
2016-09-30T06:11:23.778Z,15.33
2016-09-30T06:12:23.756Z,15.26
2016-09-30T06:13:23.755Z,15.24
2016-09-30T06:14:23.784Z,15.42
2016-09-30T06:15:23.748Z,15.23
2016-09-30T06:16:23.808Z,15.36
2016-09-30T06:17:23.739Z,15.26
2016-09-30T06:18:23.750Z,15.33
2016-09-30T06:19:23.755Z,15.31
2016-09-30T06:20:23.746Z,15.35
2016-09-30T06:21:23.772Z,15.33
2016-09-30T06:22:23.742Z,15.36
2016-09-30T06:23:23.769Z,15.38
2016-09-30T06:24:23.760Z,15.36
2016-09-30T06:25:24.160Z,15.36
2016-09-30T06:26:23.794Z,15.43
2016-09-30T06:27:23.750Z,15.46
2016-09-30T06:28:23.760Z,15.41
2016-09-30T06:29:23.746Z,15.41
2016-09-30T06:30:23.746Z,15.35
2016-09-30T06:31:23.756Z,15.43
2016-09-30T06:32:23.753Z,15.39
2016-09-30T06:33:23.737Z,15.52
2016-09-30T06:34:23.761Z,15.54
2016-09-30T06:35:23.760Z,15.52
2016-09-30T06:36:23.760Z,15.49
2016-09-30T06:37:23.765Z,15.42
2016-09-30T06:38:23.743Z,15.3
2016-09-30T06:39:23.747Z,15.51
2016-09-30T06:40:23.784Z,15.35
2016-09-30T06:41:23.762Z,15.36
2016-09-30T06:42:23.769Z,15.39
2016-09-30T06:43:23.740Z,15.38
2016-09-30T06:44:23.749Z,15.43
2016-09-30T06:45:23.770Z,15.28
2016-09-30T06:46:23.735Z,15.49
2016-09-30T06:47:23.818Z,15.46
2016-09-30T06:48:23.787Z,15.39
2016-09-30T06:49:23.752Z,15.35
2016-09-30T06:50:23.761Z,15.49
2016-09-30T06:51:23.760Z,15.45
2016-09-30T06:52:23.773Z,15.49
2016-09-30T06:53:23.753Z,15.54
2016-09-30T06:54:23.746Z,15.48
2016-09-30T06:55:23.780Z,15.49
2016-09-30T06:56:23.763Z,15.52
2016-09-30T06:57:23.781Z,15.57
2016-09-30T06:58:23.780Z,15.59
2016-09-30T06:59:23.764Z,15.59
2016-09-30T07:00:23.774Z,15.64
2016-09-30T07:01:23.775Z,15.56
2016-09-30T07:02:24.800Z,15.63
2016-09-30T07:03:23.790Z,15.72
2016-09-30T07:04:23.765Z,15.67
2016-09-30T07:05:23.793Z,15.64
2016-09-30T07:06:23.773Z,15.74
2016-09-30T07:07:23.761Z,15.63
2016-09-30T07:08:23.788Z,15.72
2016-09-30T07:09:23.779Z,15.75
2016-09-30T07:10:23.790Z,15.82
2016-09-30T07:11:23.757Z,15.86
2016-09-30T07:12:23.777Z,15.79
2016-09-30T07:13:23.769Z,15.96
2016-09-30T07:14:23.778Z,15.89
2016-09-30T07:15:23.788Z,16.07
2016-09-30T07:16:23.778Z,15.99
2016-09-30T07:17:23.773Z,16.01
2016-09-30T07:18:23.820Z,15.97
2016-09-30T07:19:23.768Z,16.04
2016-09-30T07:20:23.801Z,16.04
2016-09-30T07:21:24.416Z,16.16
2016-09-30T07:22:23.769Z,16.15
2016-09-30T07:23:23.785Z,16.15
2016-09-30T07:24:23.825Z,16.11
2016-09-30T07:25:23.935Z,16.18
2016-09-30T07:26:23.807Z,16.14
2016-09-30T07:27:23.787Z,16.25
2016-09-30T07:28:23.808Z,16.23
2016-09-30T07:29:23.859Z,16.27
2016-09-30T07:30:23.887Z,16.34
2016-09-30T07:31:24.305Z,16.31
2016-09-30T07:32:23.781Z,16.33
2016-09-30T07:33:23.988Z,16.37
2016-09-30T07:34:23.833Z,16.4
2016-09-30T07:35:23.830Z,16.4
2016-09-30T07:36:23.800Z,16.52
2016-09-30T07:37:23.962Z,16.56
2016-09-30T07:38:23.801Z,16.44
2016-09-30T07:39:23.813Z,16.56
2016-09-30T07:40:23.827Z,16.53
2016-09-30T07:41:24.193Z,16.5
2016-09-30T07:42:23.837Z,16.53
2016-09-30T07:43:24.180Z,16.59
2016-09-30T07:44:24.413Z,16.55
2016-09-30T07:45:23.821Z,16.59
2016-09-30T07:46:24.021Z,16.6
2016-09-30T07:47:23.820Z,16.65
2016-09-30T07:48:23.792Z,16.74
2016-09-30T07:49:23.802Z,16.71
2016-09-30T07:50:23.813Z,16.68
2016-09-30T07:51:23.876Z,16.73
2016-09-30T07:52:23.834Z,16.81
2016-09-30T07:53:23.815Z,16.86
2016-09-30T07:54:23.916Z,16.81
2016-09-30T07:55:23.825Z,16.89
2016-09-30T07:56:23.858Z,16.88
2016-09-30T07:57:24.082Z,16.86
2016-09-30T07:58:23.833Z,16.74
2016-09-30T07:59:23.878Z,16.89
2016-09-30T08:00:23.987Z,16.93
2016-09-30T08:01:23.837Z,17.03
2016-09-30T08:02:23.842Z,16.95
2016-09-30T08:03:24.045Z,16.96
2016-09-30T08:04:23.859Z,16.95
2016-09-30T08:05:24.103Z,16.93
2016-09-30T08:06:23.913Z,16.93
2016-09-30T08:07:23.816Z,16.98
2016-09-30T08:08:23.913Z,16.9
2016-09-30T08:09:23.955Z,17.03
2016-09-30T08:10:23.958Z,16.88
2016-09-30T08:11:23.868Z,16.9
2016-09-30T08:12:23.852Z,16.88
2016-09-30T08:13:23.882Z,16.92
2016-09-30T08:14:23.910Z,16.85
2016-09-30T08:15:24.020Z,16.88
2016-09-30T08:16:23.876Z,16.99
2016-09-30T08:17:23.882Z,16.96
2016-09-30T08:18:23.867Z,16.95
2016-09-30T08:19:23.843Z,17.06
2016-09-30T08:20:23.905Z,17.1
2016-09-30T08:21:23.872Z,17.06
2016-09-30T08:22:23.894Z,16.92
2016-09-30T08:23:23.867Z,17.03
2016-09-30T08:24:23.839Z,17.03
2016-09-30T08:25:23.886Z,17.06
2016-09-30T08:26:23.847Z,17.1
2016-09-30T08:27:23.860Z,17
2016-09-30T08:28:23.821Z,17.07
2016-09-30T08:29:23.857Z,17.04
2016-09-30T08:30:23.927Z,17.17
2016-09-30T08:31:23.853Z,17.17
2016-09-30T08:32:23.888Z,17.22
2016-09-30T08:33:23.894Z,17.29
2016-09-30T08:34:23.884Z,17.41
2016-09-30T08:35:23.910Z,17.54
2016-09-30T08:36:23.871Z,17.64
2016-09-30T08:37:23.860Z,17.78
2016-09-30T08:38:23.911Z,17.89
2016-09-30T08:39:23.886Z,17.95
2016-09-30T08:40:23.908Z,18.09
2016-09-30T08:41:23.872Z,18.04
2016-09-30T08:42:23.859Z,18.17
2016-09-30T08:43:23.878Z,18.13
2016-09-30T08:44:23.864Z,18.1
2016-09-30T08:45:23.886Z,18.15
2016-09-30T08:46:23.858Z,18.07
2016-09-30T08:47:23.881Z,18.13
2016-09-30T08:48:23.876Z,18.09
2016-09-30T08:49:23.850Z,18.12
2016-09-30T08:50:23.916Z,18.22
2016-09-30T08:51:23.861Z,18.07
2016-09-30T08:52:24.148Z,18.21
2016-09-30T08:53:23.864Z,18.22
2016-09-30T08:54:23.878Z,18.34
2016-09-30T08:55:23.882Z,18.31
2016-09-30T08:56:24.032Z,18.33
2016-09-30T08:57:24.118Z,18.28
2016-09-30T08:58:24.143Z,18.29
2016-09-30T08:59:23.890Z,18.28
2016-09-30T09:00:23.930Z,18.22
2016-09-30T09:01:24.427Z,18.27
2016-09-30T09:02:25.619Z,18.31
2016-09-30T09:03:23.976Z,18.33
2016-09-30T09:04:24.271Z,18.36
2016-09-30T09:05:24.313Z,18.31
2016-09-30T09:06:23.919Z,18.34
2016-09-30T09:07:24.015Z,18.28
2016-09-30T09:08:24.172Z,18.21
2016-09-30T09:09:24.246Z,18.25
2016-09-30T09:10:23.905Z,18.37
2016-09-30T09:11:23.933Z,18.34
2016-09-30T09:12:24.018Z,18.37
2016-09-30T09:13:24.395Z,18.44
2016-09-30T09:14:24.214Z,18.42
2016-09-30T09:15:24.046Z,18.37
2016-09-30T09:16:24.455Z,18.46
2016-09-30T09:17:24.087Z,18.44
2016-09-30T09:18:24.004Z,18.42
2016-09-30T09:19:24.132Z,18.36
2016-09-30T09:20:23.924Z,18.5
2016-09-30T09:21:24.714Z,18.43
2016-09-30T09:22:23.900Z,18.42
2016-09-30T09:23:23.901Z,18.4
2016-09-30T09:24:23.905Z,18.5
2016-09-30T09:25:23.982Z,18.65
2016-09-30T09:26:23.872Z,18.61
2016-09-30T09:27:23.923Z,18.64
2016-09-30T09:28:23.957Z,18.68
2016-09-30T09:29:23.907Z,18.59
2016-09-30T09:30:23.943Z,18.76
2016-09-30T09:31:23.912Z,18.76
2016-09-30T09:32:23.896Z,18.79
2016-09-30T09:33:23.888Z,18.98
2016-09-30T09:34:23.925Z,18.97
2016-09-30T09:35:23.962Z,19.02
2016-09-30T09:36:23.995Z,19.08
2016-09-30T09:37:23.975Z,19.2
2016-09-30T09:38:24.302Z,19.17
2016-09-30T09:39:23.937Z,19.31
2016-09-30T09:40:23.991Z,19.35
2016-09-30T09:41:23.945Z,19.36
2016-09-30T09:42:23.927Z,19.42
2016-09-30T09:43:23.946Z,19.51
2016-09-30T09:44:23.972Z,19.4
2016-09-30T09:45:23.949Z,19.65
2016-09-30T09:46:24.005Z,19.65
2016-09-30T09:47:23.989Z,19.72
2016-09-30T09:48:23.975Z,19.63
2016-09-30T09:49:23.910Z,19.8
2016-09-30T09:50:24.008Z,19.76
2016-09-30T09:51:23.976Z,19.72
2016-09-30T09:52:23.982Z,19.72
2016-09-30T09:53:23.953Z,19.65
2016-09-30T09:54:23.973Z,19.61
2016-09-30T09:55:24.033Z,19.69
2016-09-30T09:56:24.012Z,19.69
2016-09-30T09:57:23.989Z,19.8
2016-09-30T09:58:23.990Z,19.66
2016-09-30T09:59:23.967Z,19.83
2016-09-30T10:00:23.996Z,19.69
2016-09-30T10:01:24.057Z,19.75
2016-09-30T10:02:23.955Z,19.78
2016-09-30T10:03:23.953Z,19.83
2016-09-30T10:04:23.974Z,19.93
2016-09-30T10:05:24.004Z,19.83
2016-09-30T10:06:23.964Z,19.97
2016-09-30T10:07:23.981Z,20.03
2016-09-30T10:08:23.970Z,19.91
2016-09-30T10:09:23.977Z,19.78
2016-09-30T10:10:23.975Z,19.8
2016-09-30T10:11:23.950Z,19.83
2016-09-30T10:12:23.966Z,19.79
2016-09-30T10:13:23.977Z,19.86
2016-09-30T10:14:23.980Z,19.86
2016-09-30T10:15:23.986Z,19.84
2016-09-30T10:16:23.980Z,19.88
2016-09-30T10:17:23.976Z,19.94
2016-09-30T10:18:24.020Z,20
2016-09-30T10:19:23.984Z,19.93
2016-09-30T10:20:23.968Z,19.87
2016-09-30T10:21:23.990Z,19.91
2016-09-30T10:22:23.978Z,19.91
2016-09-30T10:23:23.959Z,19.76
2016-09-30T10:24:23.992Z,19.79
2016-09-30T10:25:23.976Z,19.72
2016-09-30T10:26:23.975Z,19.69
2016-09-30T10:27:23.952Z,19.68
2016-09-30T10:28:24.059Z,19.46
2016-09-30T10:29:23.982Z,19.5
2016-09-30T10:30:24.008Z,19.58
2016-09-30T10:31:23.963Z,19.57
2016-09-30T10:32:23.985Z,19.66
2016-09-30T10:33:23.975Z,19.42
2016-09-30T10:34:24.015Z,19.55
2016-09-30T10:35:24.091Z,19.47
2016-09-30T10:36:24.039Z,19.6
2016-09-30T10:37:24.004Z,19.53
2016-09-30T10:38:24.001Z,19.55
2016-09-30T10:39:24.065Z,19.63
2016-09-30T10:40:24.047Z,19.57
2016-09-30T10:41:24.007Z,19.63
2016-09-30T10:42:24.011Z,19.69
2016-09-30T10:43:23.975Z,19.75
2016-09-30T10:44:24.010Z,19.72
2016-09-30T10:45:24.046Z,19.86
2016-09-30T10:46:23.980Z,19.88
2016-09-30T10:47:23.993Z,19.9
2016-09-30T10:48:24.057Z,19.87
2016-09-30T10:49:24.013Z,19.8
2016-09-30T10:50:24.157Z,19.75
2016-09-30T10:51:24.048Z,19.95
2016-09-30T10:52:24.025Z,19.79
2016-09-30T10:53:23.984Z,20.03
2016-09-30T10:54:23.994Z,19.9
2016-09-30T10:55:24.026Z,19.91
2016-09-30T10:56:24.021Z,19.88
2016-09-30T10:57:23.994Z,20.06
2016-09-30T10:58:24.016Z,20.12
2016-09-30T10:59:24.026Z,20.08
2016-09-30T11:00:24.003Z,19.98
2016-09-30T11:01:24.035Z,19.91
2016-09-30T11:02:24.049Z,19.94
2016-09-30T11:03:24.008Z,19.91
2016-09-30T11:04:24.031Z,19.84
2016-09-30T11:05:24.026Z,19.78
2016-09-30T11:06:24.026Z,19.79
2016-09-30T11:07:24.008Z,19.84
2016-09-30T11:08:24.014Z,19.88
2016-09-30T11:09:24.008Z,19.9
2016-09-30T11:10:24.028Z,19.83
2016-09-30T11:11:24.064Z,19.84
2016-09-30T11:12:24.040Z,19.83
2016-09-30T11:13:24.007Z,19.75
2016-09-30T11:14:24.009Z,19.8
2016-09-30T11:15:24.021Z,19.68
2016-09-30T11:16:24.065Z,19.79
2016-09-30T11:17:24.049Z,19.79
2016-09-30T11:18:24.039Z,19.9
2016-09-30T11:19:24.032Z,19.78
2016-09-30T11:20:24.005Z,19.68
2016-09-30T11:21:24.016Z,19.65
2016-09-30T11:22:24.053Z,19.65
2016-09-30T11:23:24.026Z,19.73
2016-09-30T11:24:24.065Z,19.65
2016-09-30T11:25:24.074Z,19.69
2016-09-30T11:26:24.035Z,19.93
2016-09-30T11:27:24.041Z,19.93
2016-09-30T11:28:24.074Z,19.97
2016-09-30T11:29:24.053Z,19.94
2016-09-30T11:30:24.032Z,19.88
2016-09-30T11:31:24.085Z,19.95
2016-09-30T11:32:24.060Z,20.08
2016-09-30T11:33:24.061Z,20.16
2016-09-30T11:34:24.075Z,20.16
2016-09-30T11:35:24.059Z,20.13
2016-09-30T11:36:24.054Z,20.25
2016-09-30T11:37:24.033Z,20.25
2016-09-30T11:38:24.071Z,20.35
2016-09-30T11:39:24.065Z,20.34
2016-09-30T11:40:24.046Z,20.33
2016-09-30T11:41:24.075Z,20.28
2016-09-30T11:42:24.055Z,20.43
2016-09-30T11:43:24.061Z,20.38
2016-09-30T11:44:24.021Z,20.31
2016-09-30T11:45:24.044Z,20.35
2016-09-30T11:46:24.067Z,20.43
2016-09-30T11:47:24.073Z,20.34
2016-09-30T11:48:24.065Z,20.3
2016-09-30T11:49:24.067Z,20.24
2016-09-30T11:50:24.109Z,20.31
2016-09-30T11:51:24.256Z,20.24
2016-09-30T11:52:24.101Z,20.23
2016-09-30T11:53:24.123Z,20.27
2016-09-30T11:54:24.044Z,20.31
2016-09-30T11:55:24.196Z,20.34
2016-09-30T11:56:24.630Z,20.34
2016-09-30T11:57:24.094Z,20.3
2016-09-30T11:58:24.119Z,20.13
2016-09-30T11:59:24.210Z,20.06
2016-09-30T12:00:24.424Z,19.9
2016-09-30T12:01:24.104Z,19.78
2016-09-30T12:02:24.144Z,19.84
2016-09-30T12:03:24.303Z,19.87
2016-09-30T12:04:24.090Z,19.75
2016-09-30T12:05:24.084Z,19.72
2016-09-30T12:06:24.135Z,19.7
2016-09-30T12:07:24.124Z,19.69
2016-09-30T12:08:24.371Z,19.65
2016-09-30T12:09:24.123Z,19.57
2016-09-30T12:10:24.103Z,19.4
2016-09-30T12:11:24.128Z,19.53
2016-09-30T12:12:24.090Z,19.53
2016-09-30T12:13:24.151Z,19.31
2016-09-30T12:14:24.100Z,19.32
2016-09-30T12:15:24.056Z,19.17
2016-09-30T12:16:24.092Z,19.2
2016-09-30T12:17:24.134Z,19.23
2016-09-30T12:18:24.148Z,19.14
2016-09-30T12:19:24.177Z,19.15
2016-09-30T12:20:24.561Z,19.36
2016-09-30T12:21:24.148Z,19.17
2016-09-30T12:22:24.191Z,19.21
2016-09-30T12:23:24.434Z,19.1
2016-09-30T12:24:24.296Z,19.1
2016-09-30T12:25:24.095Z,19.25
2016-09-30T12:26:24.174Z,19.38
2016-09-30T12:27:24.261Z,19.28
2016-09-30T12:28:24.158Z,19.24
2016-09-30T12:29:24.102Z,19.51
2016-09-30T12:30:24.103Z,19.51
2016-09-30T12:31:24.095Z,19.63
2016-09-30T12:32:24.171Z,19.73
2016-09-30T12:33:24.117Z,19.78
2016-09-30T12:34:24.155Z,19.91
2016-09-30T12:35:24.096Z,19.9
2016-09-30T12:36:24.418Z,20.06
2016-09-30T12:37:24.137Z,20.1
2016-09-30T12:38:24.461Z,20.31
2016-09-30T12:39:24.376Z,20.35
2016-09-30T12:40:24.837Z,20.23
2016-09-30T12:41:24.113Z,20.28
2016-09-30T12:42:24.165Z,20.38
2016-09-30T12:43:24.348Z,20.61
2016-09-30T12:44:24.104Z,20.65
2016-09-30T12:45:24.245Z,20.71
2016-09-30T12:46:24.171Z,20.68
2016-09-30T12:47:24.197Z,20.68
2016-09-30T12:48:24.686Z,20.66
2016-09-30T12:49:24.143Z,20.79
2016-09-30T12:50:24.110Z,20.68
2016-09-30T12:51:24.110Z,20.89
2016-09-30T12:52:24.151Z,20.76
2016-09-30T12:53:24.225Z,20.8
2016-09-30T12:54:24.232Z,20.81
2016-09-30T12:55:24.129Z,20.86